Time;durP1;ratioP1;P1;durP2;ratioP2;P2;SDS_P1;SDS_P2;PMS_P1;PMS_P2;Temp;Humidity;BMP_temperature;BMP_pressure;BME280_temperature;BME280_humidity;BME280_pressure;Samples;Min_cycle;Max_cycle;Signal;HPM_P1;HPM_P2
2021/07/03 00:02:14;;;;;;;14.07;10.10;;;18.30;76.00;;;;;;5060937;28;20463;-43
2021/07/03 00:04:44;;;;;;;18.40;9.63;;;18.30;76.10;;;;;;5056283;28;20549;-43
2021/07/03 00:07:11;;;;;;;9.93;8.20;;;18.30;76.10;;;;;;5064841;28;20774;-43
2021/07/03 00:09:38;;;;;;;10.40;8.70;;;18.30;76.10;;;;;;5057817;28;20527;-43
2021/07/03 00:12:07;;;;;;;11.83;9.60;;;18.20;76.20;;;;;;5056386;28;20458;-43
2021/07/03 00:14:34;;;;;;;12.83;9.43;;;18.20;76.10;;;;;;5060274;28;20467;-43
2021/07/03 00:17:01;;;;;;;12.47;9.93;;;18.20;76.10;;;;;;5060716;28;20486;-43
2021/07/03 00:19:28;;;;;;;14.57;10.53;;;18.10;76.10;;;;;;5058605;28;20473;-43
2021/07/03 00:21:55;;;;;;;14.67;10.03;;;18.10;76.20;;;;;;5058505;28;20451;-43
2021/07/03 00:24:24;;;;;;;14.23;10.00;;;18.10;76.30;;;;;;5059873;28;20963;-43
2021/07/03 00:26:51;;;;;;;13.43;9.60;;;18.10;76.40;;;;;;5056398;28;20835;-43
2021/07/03 00:29:18;;;;;;;10.83;9.73;;;18.00;76.40;;;;;;5059061;28;20463;-43
2021/07/03 00:31:45;;;;;;;13.60;9.87;;;18.00;76.60;;;;;;5056683;28;20959;-43
2021/07/03 00:34:11;;;;;;;13.93;9.27;;;18.00;76.60;;;;;;5058313;28;20902;-43
2021/07/03 00:36:38;;;;;;;13.10;9.57;;;18.00;76.50;;;;;;5060535;28;20481;-43
2021/07/03 00:39:05;;;;;;;10.70;8.90;;;18.00;76.60;;;;;;5091068;28;20462;-45
2021/07/03 00:41:32;;;;;;;12.40;8.97;;;17.90;76.60;;;;;;5056034;28;20467;-45
2021/07/03 00:43:58;;;;;;;13.40;9.90;;;17.90;76.60;;;;;;5056862;28;20466;-45
2021/07/03 00:46:25;;;;;;;12.47;9.63;;;17.80;76.60;;;;;;5060378;28;20463;-45
2021/07/03 00:48:52;;;;;;;12.37;8.87;;;17.80;76.60;;;;;;5059745;28;20466;-45
2021/07/03 00:51:19;;;;;;;16.00;9.40;;;17.80;76.70;;;;;;5062443;28;20462;-45
2021/07/03 00:53:46;;;;;;;13.67;9.17;;;17.70;76.60;;;;;;5063527;28;20454;-45
2021/07/03 00:56:13;;;;;;;11.33;8.10;;;17.70;76.70;;;;;;5076695;28;20492;-45
2021/07/03 00:58:39;;;;;;;9.80;8.67;;;17.70;76.70;;;;;;5060806;28;20459;-45
2021/07/03 01:01:06;;;;;;;12.63;9.47;;;17.60;76.80;;;;;;5054336;28;20466;-45
2021/07/03 01:03:33;;;;;;;13.30;9.40;;;17.60;76.80;;;;;;5058149;28;20462;-45
2021/07/03 01:06:00;;;;;;;16.57;10.23;;;17.60;76.80;;;;;;5058482;28;20459;-45
2021/07/03 01:08:26;;;;;;;11.33;9.50;;;17.50;76.90;;;;;;5057057;28;20465;-45
2021/07/03 01:10:53;;;;;;;12.70;10.40;;;17.50;76.90;;;;;;5087564;28;20470;-45
2021/07/03 01:13:28;;;;;;;12.00;9.30;;;17.50;77.10;;;;;;5088036;28;20459;-45
2021/07/03 01:15:55;;;;;;;10.33;8.50;;;17.50;77.10;;;;;;5053850;28;20565;-45
2021/07/03 01:18:22;;;;;;;13.00;10.40;;;17.40;77.20;;;;;;5054518;28;20495;-45
2021/07/03 01:20:52;;;;;;;13.83;9.60;;;17.40;77.30;;;;;;5056327;28;20466;-45
2021/07/03 01:23:20;;;;;;;12.07;9.40;;;17.40;77.50;;;;;;5061167;28;20464;-45
2021/07/03 01:25:47;;;;;;;11.03;9.87;;;17.30;77.60;;;;;;5058289;28;20471;-45
2021/07/03 01:28:14;;;;;;;13.03;10.03;;;17.30;77.70;;;;;;5058604;28;20958;-45
2021/07/03 01:30:41;;;;;;;13.43;9.90;;;17.30;77.80;;;;;;5061232;28;20809;-45
2021/07/03 01:33:07;;;;;;;13.60;10.10;;;17.30;77.90;;;;;;5058430;28;20477;-45
2021/07/03 01:35:34;;;;;;;10.40;8.87;;;17.30;77.90;;;;;;5058159;28;20493;-45
2021/07/03 01:38:01;;;;;;;11.83;9.67;;;17.30;78.00;;;;;;5060433;28;20446;-45
2021/07/03 01:40:28;;;;;;;14.00;10.20;;;17.30;78.00;;;;;;5056100;28;20472;-45
2021/07/03 01:42:54;;;;;;;12.10;9.67;;;17.30;78.00;;;;;;5056290;28;20956;-43
2021/07/03 01:45:21;;;;;;;16.03;9.77;;;17.30;78.10;;;;;;5059457;28;20958;-43
2021/07/03 01:47:49;;;;;;;14.30;9.53;;;17.30;78.10;;;;;;5058628;28;20450;-43
2021/07/03 01:50:16;;;;;;;15.43;10.07;;;17.30;78.10;;;;;;5056386;28;21008;-43
2021/07/03 01:52:43;;;;;;;12.93;8.90;;;17.30;78.20;;;;;;5057712;28;20441;-43
2021/07/03 01:55:11;;;;;;;12.70;9.23;;;17.30;78.20;;;;;;5068210;28;20454;-43
2021/07/03 01:57:38;;;;;;;12.20;9.83;;;17.30;78.20;;;;;;5060313;28;20474;-43
2021/07/03 02:00:08;;;;;;;14.87;11.23;;;17.30;78.30;;;;;;5055628;28;21074;-43
2021/07/03 02:02:35;;;;;;;14.60;10.27;;;17.30;78.30;;;;;;5086644;28;20459;-43
2021/07/03 02:05:04;;;;;;;12.43;9.83;;;17.20;78.30;;;;;;5059988;28;20466;-43
2021/07/03 02:07:31;;;;;;;11.87;8.97;;;17.20;78.40;;;;;;5056369;28;20461;-43
2021/07/03 02:09:57;;;;;;;12.93;9.47;;;17.20;78.40;;;;;;5059429;28;20512;-43
2021/07/03 02:12:24;;;;;;;11.77;9.50;;;17.20;78.30;;;;;;5057702;28;20446;-43
2021/07/03 02:14:51;;;;;;;12.50;9.40;;;17.10;78.20;;;;;;5058780;28;20466;-45
2021/07/03 02:17:17;;;;;;;12.87;9.40;;;17.10;78.30;;;;;;5059940;28;20497;-45
2021/07/03 02:19:45;;;;;;;11.10;9.30;;;17.10;78.30;;;;;;5086239;28;21584;-45
2021/07/03 02:22:11;;;;;;;12.43;10.20;;;17.10;78.30;;;;;;5057009;28;20619;-45
2021/07/03 02:24:38;;;;;;;12.37;9.90;;;17.10;78.30;;;;;;5058683;28;20462;-43
2021/07/03 02:27:05;;;;;;;11.63;9.13;;;17.10;78.30;;;;;;5058999;28;20464;-42
2021/07/03 02:29:32;;;;;;;11.57;9.07;;;17.20;78.30;;;;;;5061099;28;20462;-42
2021/07/03 02:31:59;;;;;;;12.33;9.17;;;17.20;78.20;;;;;;5061576;28;20457;-43
2021/07/03 02:34:26;;;;;;;14.37;9.80;;;17.10;78.20;;;;;;5062216;28;20461;-43
2021/07/03 02:36:53;;;;;;;14.10;9.50;;;17.10;78.20;;;;;;5062917;28;20486;-42
2021/07/03 02:39:19;;;;;;;12.00;9.17;;;17.00;78.30;;;;;;5059310;28;20450;-42
2021/07/03 02:41:46;;;;;;;15.40;9.67;;;17.00;78.40;;;;;;5062956;28;20450;-42
2021/07/03 02:44:15;;;;;;;10.90;8.60;;;17.00;78.60;;;;;;5061216;28;20457;-42
2021/07/03 02:46:42;;;;;;;11.27;9.37;;;17.00;78.60;;;;;;5060530;28;20462;-42
2021/07/03 02:49:09;;;;;;;12.63;9.47;;;17.00;78.60;;;;;;5063755;28;20477;-42
2021/07/03 02:51:36;;;;;;;13.17;9.47;;;17.00;78.40;;;;;;5061538;28;20840;-42
2021/07/03 02:54:03;;;;;;;12.37;9.47;;;17.00;78.40;;;;;;5061444;28;20509;-42
2021/07/03 02:56:30;;;;;;;13.60;9.50;;;16.90;78.50;;;;;;5060536;28;20890;-42
2021/07/03 02:58:56;;;;;;;12.47;9.53;;;16.90;78.60;;;;;;5060768;28;20466;-42
2021/07/03 03:01:23;;;;;;;14.60;9.43;;;16.90;78.60;;;;;;5092112;28;20449;-42
2021/07/03 03:03:50;;;;;;;12.37;9.67;;;16.90;78.60;;;;;;5061776;28;20461;-42
2021/07/03 03:06:17;;;;;;;12.80;8.80;;;16.90;78.60;;;;;;5059907;28;20458;-42
2021/07/03 03:08:44;;;;;;;13.07;9.10;;;16.90;78.70;;;;;;5058670;28;20461;-42
2021/07/03 03:11:11;;;;;;;13.50;9.90;;;16.80;78.80;;;;;;5058916;28;20803;-42
2021/07/03 03:13:37;;;;;;;10.90;9.07;;;16.80;78.90;;;;;;5064764;28;20465;-42
2021/07/03 03:16:04;;;;;;;11.80;9.20;;;16.70;78.90;;;;;;5088108;28;20497;-42
2021/07/03 03:18:31;;;;;;;10.87;9.40;;;16.70;79.00;;;;;;5058291;28;20565;-42
2021/07/03 03:20:58;;;;;;;13.60;9.90;;;16.60;79.10;;;;;;5059504;28;20453;-42
2021/07/03 03:23:24;;;;;;;12.13;8.80;;;16.60;79.10;;;;;;5060407;28;20460;-42
2021/07/03 03:25:52;;;;;;;15.30;9.50;;;16.60;79.10;;;;;;5059975;28;20458;-42
2021/07/03 03:28:19;;;;;;;12.07;9.27;;;16.60;79.20;;;;;;5061173;28;20536;-42
2021/07/03 03:30:46;;;;;;;16.20;8.87;;;16.60;79.20;;;;;;5058789;28;20942;-42
2021/07/03 03:33:12;;;;;;;11.13;8.90;;;16.50;79.30;;;;;;5060830;28;20446;-42
2021/07/03 03:35:39;;;;;;;12.63;9.50;;;16.50;79.30;;;;;;5060183;28;20454;-42
2021/07/03 03:38:08;;;;;;;18.23;10.07;;;16.50;79.40;;;;;;5086479;28;20469;-42
2021/07/03 03:40:36;;;;;;;10.73;9.00;;;16.50;79.40;;;;;;5056606;28;20827;-42
2021/07/03 03:43:03;;;;;;;11.73;9.43;;;16.50;79.50;;;;;;5057449;28;20457;-42
2021/07/03 03:45:30;;;;;;;11.10;9.00;;;16.50;79.50;;;;;;5056666;28;20462;-42
2021/07/03 03:47:57;;;;;;;14.60;10.30;;;16.50;79.60;;;;;;5090637;27;20524;-42
2021/07/03 03:50:24;;;;;;;12.57;9.53;;;16.50;79.70;;;;;;5090569;28;20477;-42
2021/07/03 03:52:51;;;;;;;16.17;10.33;;;16.50;79.70;;;;;;5061184;28;20466;-42
2021/07/03 03:55:17;;;;;;;14.30;8.53;;;16.60;79.90;;;;;;5055154;28;20466;-42
2021/07/03 03:57:46;;;;;;;14.27;10.20;;;16.60;79.90;;;;;;5088295;28;20489;-42
2021/07/03 04:00:14;;;;;;;11.80;9.40;;;16.60;79.90;;;;;;5057984;28;20469;-42
2021/07/03 04:02:41;;;;;;;12.47;9.17;;;16.60;80.00;;;;;;5059025;28;20473;-42
2021/07/03 04:05:10;;;;;;;13.40;9.37;;;16.60;80.10;;;;;;5056209;28;20982;-42
2021/07/03 04:07:37;;;;;;;13.70;10.27;;;16.60;80.20;;;;;;5059436;28;20536;-42
2021/07/03 04:10:06;;;;;;;16.40;10.30;;;16.60;80.20;;;;;;5061092;28;20461;-42
2021/07/03 04:12:33;;;;;;;17.43;11.63;;;16.60;80.30;;;;;;5058778;28;20488;-42
2021/07/03 04:15:00;;;;;;;12.00;9.83;;;16.60;80.40;;;;;;5059531;28;20959;-42
2021/07/03 04:17:27;;;;;;;11.03;8.90;;;16.60;80.40;;;;;;5059537;28;20843;-43
2021/07/03 04:19:54;;;;;;;13.03;10.27;;;16.60;80.30;;;;;;5054229;28;20459;-43
2021/07/03 04:22:20;;;;;;;13.60;10.23;;;16.60;80.30;;;;;;5058091;28;20460;-43
2021/07/03 04:24:47;;;;;;;13.47;9.93;;;16.60;80.30;;;;;;5059549;28;20454;-42
2021/07/03 04:27:14;;;;;;;14.50;11.20;;;16.60;80.30;;;;;;5065309;28;20951;-42
2021/07/03 04:29:41;;;;;;;12.87;10.03;;;16.60;80.30;;;;;;5055367;28;20480;-42
2021/07/03 04:32:08;;;;;;;12.20;10.90;;;16.70;80.30;;;;;;5064064;28;20771;-45
2021/07/03 04:34:35;;;;;;;13.60;11.40;;;16.70;80.30;;;;;;5054120;28;20470;-45
2021/07/03 04:37:02;;;;;;;18.97;11.50;;;16.60;80.40;;;;;;5056889;28;20941;-45
2021/07/03 04:39:29;;;;;;;11.13;9.30;;;16.60;80.50;;;;;;5058243;28;20454;-45
2021/07/03 04:41:56;;;;;;;13.57;11.13;;;16.60;80.50;;;;;;5055803;28;20493;-45
2021/07/03 04:44:25;;;;;;;14.40;10.13;;;16.70;80.60;;;;;;5058963;28;20965;-45
2021/07/03 04:46:52;;;;;;;12.83;10.60;;;16.70;80.60;;;;;;5053626;28;20493;-45
2021/07/03 04:49:19;;;;;;;11.57;9.77;;;16.70;80.40;;;;;;5063293;28;20865;-45
2021/07/03 04:51:45;;;;;;;15.53;11.07;;;16.70;80.40;;;;;;5058404;28;20469;-45
2021/07/03 04:54:12;;;;;;;13.53;10.00;;;16.70;80.30;;;;;;5058929;28;20458;-45
2021/07/03 04:56:39;;;;;;;15.97;10.20;;;16.80;80.20;;;;;;5090281;27;20477;-45
2021/07/03 04:59:06;;;;;;;14.70;10.30;;;16.80;80.20;;;;;;5057189;28;20458;-45
2021/07/03 05:01:33;;;;;;;17.97;10.73;;;16.80;80.30;;;;;;5055655;28;20454;-45
2021/07/03 05:04:00;;;;;;;18.57;11.40;;;16.80;80.40;;;;;;5090148;28;20966;-45
2021/07/03 05:06:27;;;;;;;16.60;11.03;;;16.80;80.40;;;;;;5057022;28;20834;-45
2021/07/03 05:08:53;;;;;;;15.50;10.90;;;16.80;80.50;;;;;;5057030;28;20859;-45
2021/07/03 05:11:20;;;;;;;14.20;10.77;;;16.90;80.30;;;;;;5062358;28;20492;-45
2021/07/03 05:13:47;;;;;;;17.17;11.33;;;16.90;80.20;;;;;;5058407;28;20464;-45
2021/07/03 05:16:13;;;;;;;15.80;10.13;;;17.00;80.00;;;;;;5060245;28;20461;-45
2021/07/03 05:18:40;;;;;;;16.10;10.87;;;17.10;79.80;;;;;;5056042;28;20492;-45
2021/07/03 05:21:07;;;;;;;16.87;11.53;;;17.10;79.60;;;;;;5086327;28;20455;-45
2021/07/03 05:23:34;;;;;;;13.53;10.67;;;17.20;79.70;;;;;;5058702;28;20458;-45
2021/07/03 05:26:00;;;;;;;15.33;11.70;;;17.20;79.80;;;;;;5057426;28;20442;-45
2021/07/03 05:28:27;;;;;;;16.80;11.13;;;17.30;80.00;;;;;;5061864;28;20442;-45
2021/07/03 05:30:57;;;;;;;15.67;11.03;;;17.30;80.00;;;;;;5056710;28;20932;-45
2021/07/03 05:33:24;;;;;;;12.60;11.00;;;17.40;79.80;;;;;;5057035;28;20455;-45
2021/07/03 05:35:50;;;;;;;14.83;10.53;;;17.40;79.90;;;;;;5056776;28;20482;-45
2021/07/03 05:38:17;;;;;;;12.23;10.40;;;17.40;80.00;;;;;;5086983;28;20490;-45
2021/07/03 05:40:44;;;;;;;15.20;10.80;;;17.50;80.20;;;;;;5058047;28;20450;-45
2021/07/03 05:43:11;;;;;;;16.37;12.37;;;17.50;80.40;;;;;;5087723;28;21065;-45
2021/07/03 05:45:38;;;;;;;13.73;10.53;;;17.50;80.60;;;;;;5057218;28;20460;-45
2021/07/03 05:48:05;;;;;;;12.53;10.80;;;17.60;80.60;;;;;;5066069;28;20478;-45
2021/07/03 05:50:31;;;;;;;14.50;10.53;;;17.70;80.50;;;;;;5055784;28;20462;-45
2021/07/03 05:52:58;;;;;;;16.97;11.17;;;17.70;80.50;;;;;;5055759;28;20545;-45
2021/07/03 05:55:25;;;;;;;17.80;11.60;;;17.80;80.30;;;;;;5055384;28;20485;-45
2021/07/03 05:57:52;;;;;;;15.47;11.63;;;17.80;80.40;;;;;;5074771;28;20494;-45
2021/07/03 06:00:20;;;;;;;13.53;11.20;;;17.90;80.50;;;;;;5055545;28;20501;-45
2021/07/03 06:02:47;;;;;;;13.67;10.60;;;17.90;80.30;;;;;;5058969;28;20810;-45
2021/07/03 06:05:14;;;;;;;13.30;10.37;;;18.00;80.40;;;;;;5090512;28;20481;-45
2021/07/03 06:07:41;;;;;;;17.90;11.80;;;18.00;80.40;;;;;;5062261;28;20462;-45
2021/07/03 06:10:08;;;;;;;15.20;11.00;;;18.00;80.50;;;;;;5059866;28;20465;-45
2021/07/03 06:12:35;;;;;;;18.67;11.80;;;18.00;80.50;;;;;;5063491;28;20558;-45
2021/07/03 06:15:04;;;;;;;16.43;12.10;;;18.00;80.40;;;;;;5060049;28;20557;-45
2021/07/03 06:17:31;;;;;;;17.13;11.97;;;18.10;80.20;;;;;;5056029;28;20494;-45
2021/07/03 06:19:58;;;;;;;15.80;12.27;;;18.10;80.10;;;;;;5088623;27;20473;-45
2021/07/03 06:22:25;;;;;;;17.27;12.70;;;18.20;79.90;;;;;;5062379;28;20462;-45
2021/07/03 06:24:52;;;;;;;14.43;11.50;;;18.30;79.00;;;;;;5057436;28;20827;-45
2021/07/03 06:27:18;;;;;;;23.00;12.73;;;18.40;78.70;;;;;;5063835;28;20483;-45
2021/07/03 06:29:45;;;;;;;18.60;13.20;;;18.40;78.00;;;;;;5062388;28;20819;-45
2021/07/03 06:32:12;;;;;;;19.60;12.23;;;18.50;77.40;;;;;;5057718;28;20459;-45
2021/07/03 06:34:39;;;;;;;18.53;12.73;;;18.60;77.40;;;;;;5060625;28;20692;-45
2021/07/03 06:37:06;;;;;;;19.47;13.30;;;18.70;76.90;;;;;;5062574;28;20482;-45
2021/07/03 06:39:33;;;;;;;16.83;13.00;;;18.90;76.50;;;;;;5087910;28;20485;-45
2021/07/03 06:42:00;;;;;;;16.63;12.80;;;19.00;76.40;;;;;;5059570;28;21000;-45
2021/07/03 06:44:27;;;;;;;15.57;12.47;;;19.10;75.90;;;;;;5066211;28;20438;-45
2021/07/03 06:46:54;;;;;;;16.90;12.43;;;19.20;75.50;;;;;;5089654;27;20450;-45
2021/07/03 06:49:21;;;;;;;17.33;12.57;;;19.30;75.20;;;;;;5058322;28;21089;-45
2021/07/03 06:51:48;;;;;;;13.00;11.40;;;19.50;74.70;;;;;;5059099;28;20470;-45
2021/07/03 06:54:14;;;;;;;16.30;11.83;;;19.60;74.50;;;;;;5064378;28;20467;-45
2021/07/03 06:56:41;;;;;;;15.70;12.63;;;19.70;74.50;;;;;;5062179;28;20457;-45
2021/07/03 06:59:08;;;;;;;17.40;12.27;;;19.80;73.70;;;;;;5090195;28;20446;-45
2021/07/03 07:01:35;;;;;;;17.90;12.03;;;19.90;74.00;;;;;;5057813;28;20497;-45
2021/07/03 07:04:02;;;;;;;15.20;11.60;;;20.00;73.50;;;;;;5057757;28;20454;-45
2021/07/03 07:06:29;;;;;;;22.57;12.00;;;20.10;73.40;;;;;;5056778;28;20545;-45
2021/07/03 07:08:55;;;;;;;16.37;12.17;;;20.20;73.10;;;;;;5059159;28;20463;-45
2021/07/03 07:11:22;;;;;;;17.10;11.80;;;20.30;72.50;;;;;;5058296;28;20916;-45
2021/07/03 07:13:49;;;;;;;16.37;12.13;;;20.50;71.90;;;;;;5057309;28;20451;-45
2021/07/03 07:16:31;;;;;;;17.90;12.60;;;20.60;71.80;;;;;;5059162;28;20469;-45
2021/07/03 07:18:57;;;;;;;19.07;13.13;;;20.60;71.50;;;;;;5059074;28;20489;-45
2021/07/03 07:21:24;;;;;;;18.07;12.80;;;20.70;71.60;;;;;;5077444;28;20454;-45
2021/07/03 07:23:51;;;;;;;15.93;11.97;;;20.80;71.40;;;;;;5059755;28;20462;-45
2021/07/03 07:26:18;;;;;;;15.33;11.30;;;21.00;71.00;;;;;;5060392;28;20485;-45
2021/07/03 07:28:45;;;;;;;14.77;11.90;;;21.10;71.40;;;;;;5057913;28;20818;-45
2021/07/03 07:31:12;;;;;;;15.93;12.27;;;21.20;71.00;;;;;;5054656;28;20458;-45
2021/07/03 07:33:39;;;;;;;16.10;11.30;;;21.40;70.90;;;;;;5058079;28;20468;-45
2021/07/03 07:36:06;;;;;;;15.27;11.43;;;21.50;70.90;;;;;;5062612;28;20445;-45
2021/07/03 07:38:32;;;;;;;14.50;11.67;;;21.60;70.20;;;;;;5060933;28;20490;-45
2021/07/03 07:40:59;;;;;;;17.07;10.97;;;21.70;69.20;;;;;;5055976;28;21260;-45
2021/07/03 07:43:26;;;;;;;17.47;12.10;;;21.90;68.70;;;;;;5063037;28;20458;-45
2021/07/03 07:45:55;;;;;;;17.30;12.90;;;22.10;68.20;;;;;;5056622;28;20457;-45
2021/07/03 07:48:23;;;;;;;16.30;11.90;;;22.20;68.30;;;;;;5058452;28;20479;-45
2021/07/03 07:50:50;;;;;;;14.50;11.97;;;22.30;67.80;;;;;;5059973;28;20465;-45
2021/07/03 07:53:16;;;;;;;14.30;11.33;;;22.40;67.20;;;;;;5054962;28;20819;-45
2021/07/03 07:55:44;;;;;;;14.90;10.83;;;22.50;67.10;;;;;;5090520;28;21019;-45
2021/07/03 07:58:10;;;;;;;15.30;11.33;;;22.70;67.00;;;;;;5064479;28;20484;-45
2021/07/03 08:00:37;;;;;;;15.70;11.93;;;22.90;66.60;;;;;;5058212;28;20454;-45
2021/07/03 08:03:07;;;;;;;13.90;11.33;;;23.00;66.30;;;;;;5087818;27;20468;-45
2021/07/03 08:05:35;;;;;;;13.33;11.17;;;23.20;65.90;;;;;;5057414;28;20471;-45
2021/07/03 08:08:05;;;;;;;15.17;12.00;;;23.30;65.60;;;;;;5057366;28;20919;-45
2021/07/03 08:10:37;;;;;;;15.30;12.23;;;23.50;64.30;;;;;;5085736;28;20488;-45
2021/07/03 08:13:04;;;;;;;15.80;11.63;;;23.60;63.80;;;;;;5088566;28;20970;-45
2021/07/03 08:15:32;;;;;;;14.50;11.73;;;23.70;63.10;;;;;;5057407;28;20963;-45
2021/07/03 08:18:00;;;;;;;15.60;11.93;;;23.80;63.00;;;;;;5056468;28;20500;-45
2021/07/03 08:20:33;;;;;;;13.30;10.63;;;23.80;63.30;;;;;;5056928;28;20496;-45
2021/07/03 08:23:00;;;;;;;14.10;11.27;;;23.80;63.40;;;;;;5059626;28;20457;-45
2021/07/03 08:25:27;;;;;;;13.50;10.83;;;23.90;63.10;;;;;;5060393;28;20964;-45
2021/07/03 08:27:55;;;;;;;16.67;12.47;;;24.00;63.10;;;;;;5058983;28;20456;-45
2021/07/03 08:30:23;;;;;;;14.80;12.63;;;24.10;62.70;;;;;;5061168;28;20614;-45
2021/07/03 08:32:53;;;;;;;13.50;11.13;;;24.20;62.20;;;;;;5058157;28;20460;-46
2021/07/03 08:35:20;;;;;;;15.87;12.10;;;24.30;61.70;;;;;;5061316;28;20450;-45
2021/07/03 08:37:49;;;;;;;15.80;11.10;;;24.50;61.00;;;;;;5058233;28;20477;-46
2021/07/03 08:40:17;;;;;;;14.23;11.07;;;24.60;61.00;;;;;;5063468;28;20438;-46
2021/07/03 08:42:44;;;;;;;17.20;11.60;;;24.80;61.00;;;;;;5059493;28;20818;-46
2021/07/03 08:45:12;;;;;;;10.83;9.50;;;25.00;60.40;;;;;;5060864;28;20511;-46
2021/07/03 08:47:44;;;;;;;18.50;11.00;;;25.10;59.80;;;;;;5055503;28;20456;-46
2021/07/03 08:50:14;;;;;;;15.90;12.63;;;25.30;59.10;;;;;;5058124;28;20454;-46
2021/07/03 08:52:40;;;;;;;15.27;11.37;;;25.40;58.40;;;;;;5059243;28;20466;-46
2021/07/03 08:55:29;;;;;;;12.93;10.23;;;25.50;58.40;;;;;;5063178;28;20532;-46
2021/07/03 08:58:05;;;;;;;14.13;11.37;;;25.70;58.50;;;;;;5057794;28;20515;-46
2021/07/03 09:00:38;;;;;;;10.80;9.33;;;25.80;58.10;;;;;;5059036;28;20460;-46
2021/07/03 09:03:13;;;;;;;14.77;11.20;;;26.00;58.30;;;;;;5057401;28;20465;-46
2021/07/03 09:05:41;;;;;;;13.77;11.00;;;26.10;57.70;;;;;;5056645;28;20441;-46
2021/07/03 09:08:10;;;;;;;13.73;11.50;;;26.20;57.20;;;;;;5055173;28;20454;-46
2021/07/03 09:10:40;;;;;;;13.57;11.70;;;26.40;57.60;;;;;;5056233;28;20986;-46
2021/07/03 09:13:07;;;;;;;18.83;11.40;;;26.50;56.60;;;;;;5063988;28;20965;-46
2021/07/03 09:15:37;;;;;;;14.30;11.00;;;26.40;56.90;;;;;;5061092;28;21047;-46
2021/07/03 09:18:07;;;;;;;11.17;10.00;;;26.50;56.30;;;;;;5047110;28;20494;-46
2021/07/03 09:20:51;;;;;;;11.47;9.60;;;26.60;56.40;;;;;;5055568;28;20461;-46
2021/07/03 09:23:22;;;;;;;10.40;9.37;;;26.80;56.50;;;;;;5059508;28;20452;-46
2021/07/03 09:25:55;;;;;;;12.07;8.67;;;27.00;54.80;;;;;;5056815;28;20455;-46
2021/07/03 09:28:30;;;;;;;18.93;9.60;;;27.10;53.10;;;;;;5057988;28;20828;-46
2021/07/03 09:31:00;;;;;;;9.67;8.67;;;27.20;52.90;;;;;;5059547;28;20451;-46
2021/07/03 09:33:36;;;;;;;10.70;8.33;;;27.20;53.20;;;;;;5057060;28;20461;-46
2021/07/03 09:36:09;;;;;;;10.30;8.53;;;27.40;52.90;;;;;;5058364;28;20681;-46
2021/07/03 09:38:46;;;;;;;11.60;9.30;;;27.60;52.10;;;;;;5046396;28;20505;-46
2021/07/03 09:41:28;;;;;;;16.13;8.80;;;27.90;52.70;;;;;;5057326;28;20463;-47
2021/07/03 09:43:59;;;;;;;14.43;8.90;;;28.20;52.10;;;;;;5062760;28;20814;-46
2021/07/03 09:46:27;;;;;;;9.53;8.53;;;28.60;50.70;;;;;;5060510;28;20969;-46
2021/07/03 09:49:05;;;;;;;10.17;9.10;;;28.80;50.50;;;;;;5054635;28;20489;-47
2021/07/03 09:51:39;;;;;;;10.60;8.80;;;28.80;50.50;;;;;;5053929;28;20453;-47
2021/07/03 09:54:09;;;;;;;13.47;8.60;;;28.90;50.70;;;;;;5059284;28;20460;-47
2021/07/03 09:56:37;;;;;;;11.37;8.53;;;29.00;50.60;;;;;;5060007;28;20213;-47
2021/07/03 09:59:04;;;;;;;13.27;8.30;;;29.00;50.40;;;;;;5057540;28;20235;-47
2021/07/03 10:01:40;;;;;;;10.27;9.17;;;28.90;49.90;;;;;;5054840;28;20437;-47
2021/07/03 10:04:08;;;;;;;8.63;7.40;;;28.80;50.50;;;;;;5057933;28;20806;-46
2021/07/03 10:06:40;;;;;;;9.67;7.90;;;28.70;49.90;;;;;;5054694;28;20661;-47
2021/07/03 10:09:11;;;;;;;8.50;7.67;;;28.50;51.40;;;;;;5055792;28;20199;-47
2021/07/03 10:11:45;;;;;;;8.60;7.57;;;28.30;51.70;;;;;;5057256;28;20691;-46
2021/07/03 10:14:12;;;;;;;11.60;8.40;;;28.00;52.10;;;;;;5085459;28;20208;-47
2021/07/03 10:16:39;;;;;;;8.70;7.77;;;27.60;52.90;;;;;;5058879;28;20969;-46
2021/07/03 10:19:13;;;;;;;10.00;8.30;;;27.30;53.20;;;;;;5058917;28;20496;-46
2021/07/03 10:21:42;;;;;;;8.63;7.80;;;27.10;53.40;;;;;;5056973;28;20488;-47
2021/07/03 10:24:20;;;;;;;8.90;7.33;;;26.90;55.00;;;;;;5056312;28;20832;-47
2021/07/03 10:26:50;;;;;;;9.20;7.90;;;26.70;54.40;;;;;;5054874;28;20972;-46
2021/07/03 10:29:21;;;;;;;8.50;7.60;;;26.50;53.50;;;;;;5059667;28;20457;-46
2021/07/03 10:31:49;;;;;;;8.73;7.60;;;26.30;53.70;;;;;;5056748;28;20457;-47
2021/07/03 10:34:30;;;;;;;9.60;7.90;;;26.20;54.40;;;;;;5085593;28;20896;-46
2021/07/03 10:37:09;;;;;;;8.90;8.00;;;26.10;54.70;;;;;;5084423;28;20461;-46
2021/07/03 10:39:36;;;;;;;8.90;7.47;;;26.00;55.70;;;;;;5057237;28;20526;-46
2021/07/03 10:42:03;;;;;;;9.23;7.63;;;25.90;55.30;;;;;;5087024;28;20454;-46
2021/07/03 10:44:41;;;;;;;12.90;8.60;;;25.80;55.60;;;;;;5054131;28;20462;-46
2021/07/03 10:47:10;;;;;;;7.07;6.47;;;25.70;55.80;;;;;;5064824;28;20457;-46
2021/07/03 10:49:38;;;;;;;7.93;7.13;;;25.60;55.80;;;;;;5058558;28;20468;-46
2021/07/03 10:52:16;;;;;;;7.13;5.97;;;25.60;56.30;;;;;;5060553;28;20847;-46
2021/07/03 10:54:47;;;;;;;7.50;6.07;;;25.50;54.90;;;;;;5063493;28;20467;-46
2021/07/03 10:57:25;;;;;;;7.20;6.50;;;25.50;54.50;;;;;;5090811;27;20831;-46
2021/07/03 11:00:00;;;;;;;7.43;5.90;;;25.50;54.00;;;;;;5058886;28;20484;-46
2021/07/03 11:02:31;;;;;;;5.70;5.20;;;25.50;53.00;;;;;;5060244;28;20465;-46
2021/07/03 11:05:08;;;;;;;6.53;5.93;;;25.50;52.40;;;;;;5060561;28;20446;-46
2021/07/03 11:07:35;;;;;;;6.40;5.80;;;25.40;52.90;;;;;;5088449;28;20472;-46
2021/07/03 11:10:13;;;;;;;6.00;5.50;;;25.40;53.30;;;;;;5059573;28;20478;-46
2021/07/03 11:12:47;;;;;;;5.17;4.67;;;25.30;53.00;;;;;;5060653;28;20452;-46
2021/07/03 11:15:16;;;;;;;5.60;5.10;;;25.40;51.60;;;;;;5061700;28;20454;-46
2021/07/03 11:17:43;;;;;;;5.33;4.83;;;25.40;52.00;;;;;;5060199;28;20861;-46
2021/07/03 11:20:21;;;;;;;5.70;5.03;;;25.40;51.50;;;;;;5060383;28;20446;-46
2021/07/03 11:22:48;;;;;;;6.13;5.50;;;25.40;51.70;;;;;;5063649;28;20814;-46
2021/07/03 11:25:27;;;;;;;6.40;5.60;;;25.50;52.20;;;;;;5058276;28;20461;-46
2021/07/03 11:28:07;;;;;;;5.30;4.87;;;25.60;52.70;;;;;;5058461;28;20445;-46
2021/07/03 11:30:35;;;;;;;11.10;5.73;;;25.70;51.70;;;;;;5063580;28;20548;-46
2021/07/03 11:33:02;;;;;;;6.20;5.60;;;25.70;51.40;;;;;;5059053;28;20453;-46
2021/07/03 11:35:30;;;;;;;6.67;6.03;;;25.80;51.60;;;;;;5059283;28;20453;-46
2021/07/03 11:37:58;;;;;;;6.70;5.97;;;25.90;51.50;;;;;;5059886;28;20462;-47
2021/07/03 11:40:28;;;;;;;7.30;4.77;;;25.80;52.30;;;;;;5063386;28;20455;-47
2021/07/03 11:43:03;;;;;;;12.97;6.57;;;25.70;51.80;;;;;;5057821;28;20452;-47
2021/07/03 11:45:32;;;;;;;7.70;5.40;;;25.80;51.80;;;;;;5064115;28;20840;-47
2021/07/03 11:48:16;;;;;;;5.67;5.10;;;25.80;52.30;;;;;;5062290;28;20442;-47
2021/07/03 11:50:46;;;;;;;6.80;5.83;;;25.90;51.50;;;;;;5058588;28;20699;-47
2021/07/03 11:53:14;;;;;;;7.13;6.00;;;25.80;51.70;;;;;;5061959;28;20446;-47
2021/07/03 11:55:47;;;;;;;5.97;5.10;;;25.90;52.90;;;;;;5063341;28;20446;-47
2021/07/03 11:58:16;;;;;;;5.53;4.83;;;25.90;52.60;;;;;;5062905;28;20512;-47
2021/07/03 12:00:56;;;;;;;5.57;5.07;;;26.00;53.40;;;;;;5064199;28;20830;-47
2021/07/03 12:03:27;;;;;;;5.90;5.10;;;26.10;51.60;;;;;;5089405;28;20449;-47
2021/07/03 12:05:56;;;;;;;5.27;4.77;;;26.00;50.50;;;;;;5062434;28;20464;-47
2021/07/03 12:08:29;;;;;;;9.33;5.17;;;26.00;50.90;;;;;;5084603;27;20472;-47
2021/07/03 12:11:02;;;;;;;5.90;5.30;;;26.00;52.10;;;;;;5065209;28;20458;-47
2021/07/03 12:13:31;;;;;;;6.37;5.67;;;26.00;51.50;;;;;;5058377;28;20510;-47
2021/07/03 12:15:58;;;;;;;5.07;4.57;;;26.10;51.50;;;;;;5064140;28;20454;-47
2021/07/03 12:18:32;;;;;;;5.97;5.30;;;26.10;50.80;;;;;;5056435;28;20488;-46
2021/07/03 12:21:25;;;;;;;4.90;4.40;;;26.20;51.00;;;;;;5056429;28;20524;-47
2021/07/03 12:23:56;;;;;;;6.40;5.70;;;26.10;50.30;;;;;;5057467;28;20977;-47
2021/07/03 12:26:27;;;;;;;9.20;6.40;;;26.10;51.60;;;;;;5059434;28;20876;-47
2021/07/03 12:29:10;;;;;;;6.80;6.20;;;26.20;51.80;;;;;;5059743;28;20492;-47
2021/07/03 12:31:38;;;;;;;6.23;5.70;;;26.10;50.30;;;;;;5062720;28;20843;-47
2021/07/03 12:34:07;;;;;;;8.67;5.53;;;26.20;51.10;;;;;;5058403;28;20454;-47
2021/07/03 12:36:36;;;;;;;6.00;4.83;;;26.20;51.10;;;;;;5058459;28;20446;-47
2021/07/03 12:39:07;;;;;;;10.87;5.57;;;26.30;50.60;;;;;;5056838;28;21011;-47
2021/07/03 12:41:38;;;;;;;5.87;5.23;;;26.30;50.00;;;;;;5057325;28;20469;-47